Time;durP1;ratioP1;P1;durP2;ratioP2;P2;SDS_P1;SDS_P2;PMS_P1;PMS_P2;Temp;Humidity;BMP_temperature;BMP_pressure;BME280_temperature;BME280_humidity;BME280_pressure;Samples;Min_cycle;Max_cycle;Signal;HPM_P1;HPM_P2
2022/11/01 00:02:05;;;;;;;0.60;0.60;;;;;;;15.39;71.51;100126.13;5049678;28;20234;-75
2022/11/01 00:04:32;;;;;;;0.60;0.60;;;;;;;15.37;71.74;100117.59;5050895;28;20197;-76
2022/11/01 00:07:00;;;;;;;0.53;0.53;;;;;;;15.38;71.95;100125.28;5050793;28;20672;-75
2022/11/01 00:09:27;;;;;;;0.50;0.50;;;;;;;15.28;72.20;100112.78;5051100;28;20207;-75
2022/11/01 00:11:54;;;;;;;0.50;0.50;;;;;;;15.14;72.69;100116.75;5049926;28;20196;-75
2022/11/01 00:14:21;;;;;;;0.53;0.53;;;;;;;15.14;72.53;100114.16;5050067;28;20617;-75
2022/11/01 00:16:48;;;;;;;0.40;0.40;;;;;;;15.06;73.45;100107.56;5050480;28;20210;-76
2022/11/01 00:19:15;;;;;;;0.50;0.50;;;;;;;15.04;73.12;100109.38;5050203;28;20212;-75
2022/11/01 00:21:42;;;;;;;0.70;0.70;;;;;;;15.04;72.97;100109.38;5050504;28;20593;-76
2022/11/01 00:24:11;;;;;;;0.57;0.57;;;;;;;14.94;73.58;100113.19;5049481;28;20665;-75
2022/11/01 00:26:38;;;;;;;0.60;0.60;;;;;;;14.95;73.33;100110.56;5050673;28;20724;-76
2022/11/01 00:29:04;;;;;;;0.50;0.50;;;;;;;14.91;73.46;100106.41;5050086;28;20208;-76
2022/11/01 00:31:31;;;;;;;0.50;0.50;;;;;;;14.87;74.17;100111.72;5049333;28;20194;-76
2022/11/01 00:34:02;;;;;;;0.50;0.50;;;;;;;14.86;74.58;100110.91;5048748;28;20214;-75
2022/11/01 00:36:29;;;;;;;0.50;0.50;;;;;;;14.86;74.32;100110.06;5049119;28;20251;-75
2022/11/01 00:38:56;;;;;;;0.70;0.70;;;;;;;14.78;75.13;100110.34;5047473;28;20258;-76
2022/11/01 00:41:24;;;;;;;0.60;0.60;;;;;;;14.77;75.05;100113.78;5049249;28;20587;-76
2022/11/01 00:43:51;;;;;;;0.53;0.53;;;;;;;14.80;74.91;100112.88;5048618;28;20203;-75
2022/11/01 00:46:18;;;;;;;0.77;0.77;;;;;;;14.79;74.96;100113.75;5049372;28;20196;-76
2022/11/01 00:48:45;;;;;;;0.40;0.40;;;;;;;14.77;74.50;100106.06;5050094;28;20204;-75
2022/11/01 00:51:12;;;;;;;0.50;0.50;;;;;;;14.78;74.35;100117.22;5049310;28;20673;-75
2022/11/01 00:53:39;;;;;;;0.30;0.30;;;;;;;14.59;74.49;100102.41;5049037;28;20214;-76
2022/11/01 00:56:07;;;;;;;0.47;0.47;;;;;;;14.62;74.81;100112.63;5049506;28;20200;-75
2022/11/01 00:58:35;;;;;;;0.40;0.40;;;;;;;14.67;74.53;100109.84;5049601;28;20210;-76
2022/11/01 01:01:02;;;;;;;0.60;0.60;;;;;;;14.65;74.19;100111.66;5049595;28;20199;-76
2022/11/01 01:03:29;;;;;;;0.40;0.40;;;;;;;14.54;74.30;100096.53;5048889;28;20198;-75
2022/11/01 01:05:56;;;;;;;0.50;0.50;;;;;;;14.63;74.53;100104.00;5049985;28;20259;-76
2022/11/01 01:08:24;;;;;;;0.50;0.50;;;;;;;14.62;74.44;100102.28;5049430;28;20203;-75
2022/11/01 01:10:51;;;;;;;0.60;0.60;;;;;;;14.60;74.43;100098.91;5049382;28;20255;-75
2022/11/01 01:13:19;;;;;;;0.50;0.50;;;;;;;14.59;74.54;100102.41;5048924;28;20217;-75
2022/11/01 01:15:47;;;;;;;0.50;0.50;;;;;;;14.59;74.91;100097.25;5049542;28;20208;-75
2022/11/01 01:18:14;;;;;;;0.70;0.70;;;;;;;14.61;74.72;100098.03;5049564;28;20202;-76
2022/11/01 01:20:41;;;;;;;0.67;0.67;;;;;;;14.62;74.64;100102.28;5049456;28;20204;-76
2022/11/01 01:23:08;;;;;;;0.60;0.60;;;;;;;14.60;74.71;100104.06;5049614;28;20220;-76
2022/11/01 01:25:38;;;;;;;0.40;0.40;;;;;;;14.55;74.83;100105.13;5049492;28;20222;-75
2022/11/01 01:28:05;;;;;;;0.60;0.60;;;;;;;14.51;75.10;100098.38;5046612;28;20206;-75
2022/11/01 01:30:32;;;;;;;1.33;1.33;;;;;;;14.52;75.09;100111.25;5049271;28;20212;-75
2022/11/01 01:33:00;;;;;;;0.70;0.70;;;;;;;14.51;75.25;100109.56;5048975;28;20205;-76
2022/11/01 01:35:27;;;;;;;0.60;0.60;;;;;;;14.50;75.22;100107.91;5049620;28;20227;-75
2022/11/01 01:37:54;;;;;;;0.57;0.57;;;;;;;14.47;75.18;100108.00;5048699;28;20678;-75
2022/11/01 01:40:21;;;;;;;0.40;0.40;;;;;;;14.35;75.76;100092.06;5049113;28;20203;-76
2022/11/01 01:42:47;;;;;;;0.40;0.40;;;;;;;14.40;75.93;100100.53;5048802;28;20791;-75
2022/11/01 01:45:33;;;;;;;0.50;0.50;;;;;;;14.34;76.39;100104.16;5049661;28;20201;-75
2022/11/01 01:48:09;;;;;;;0.50;0.50;;;;;;;14.28;76.40;100101.72;5049132;28;20205;-75
2022/11/01 01:50:40;;;;;;;0.40;0.40;;;;;;;14.26;76.72;100103.53;5048925;28;20653;-76
2022/11/01 01:53:12;;;;;;;0.43;0.43;;;;;;;14.23;76.66;100106.22;5048881;28;20216;-75
2022/11/01 01:55:42;;;;;;;0.60;0.60;;;;;;;14.17;76.62;100114.16;5049212;28;20200;-75
2022/11/01 01:58:11;;;;;;;0.53;0.53;;;;;;;14.15;76.70;100114.19;5048884;28;20204;-75
2022/11/01 02:00:39;;;;;;;0.47;0.47;;;;;;;14.14;76.88;100109.09;5049129;28;20197;-76
2022/11/01 02:03:07;;;;;;;0.97;0.97;;;;;;;14.09;77.00;100105.81;5048991;28;20225;-75
2022/11/01 02:05:43;;;;;;;0.50;0.50;;;;;;;14.07;77.32;100097.31;5048962;28;20216;-76
2022/11/01 02:08:11;;;;;;;0.50;0.50;;;;;;;14.04;77.37;100110.31;5048902;28;20661;-75
2022/11/01 02:10:39;;;;;;;0.47;0.47;;;;;;;13.96;77.74;100114.84;5049509;28;20205;-76
2022/11/01 02:13:12;;;;;;;0.60;0.60;;;;;;;13.94;77.72;100119.22;5048775;28;20232;-76
2022/11/01 02:15:47;;;;;;;0.50;0.50;;;;;;;13.90;77.97;100112.47;5049039;28;20201;-76
2022/11/01 02:18:22;;;;;;;0.53;0.53;;;;;;;13.94;77.68;100119.22;5052569;28;20192;-76
2022/11/01 02:21:18;;;;;;;0.60;0.60;;;;;;;13.96;77.38;100135.47;5050592;28;20232;-76
2022/11/01 02:24:23;;;;;;;0.60;0.60;;;;;;;13.87;77.34;100130.63;5050369;28;20189;-76
2022/11/01 02:27:12;;;;;;;0.50;0.50;;;;;;;13.80;77.03;100129.13;5050617;28;20736;-76
2022/11/01 02:29:55;;;;;;;0.40;0.40;;;;;;;13.79;77.12;100137.75;5049156;28;20189;-76
2022/11/01 02:32:28;;;;;;;0.50;0.50;;;;;;;13.74;77.79;100137.91;5051344;28;20596;-76
2022/11/01 02:34:59;;;;;;;0.60;0.60;;;;;;;13.71;77.66;100144.88;5051204;28;20216;-76
2022/11/01 02:37:32;;;;;;;0.40;0.40;;;;;;;13.65;77.80;100141.59;5050464;28;20240;-76
2022/11/01 02:40:05;;;;;;;0.50;0.50;;;;;;;13.58;77.96;100140.09;5051762;28;20201;-76
2022/11/01 02:42:37;;;;;;;0.40;0.40;;;;;;;13.47;78.41;100142.16;5052296;28;20212;-76
2022/11/01 02:45:08;;;;;;;0.57;0.57;;;;;;;13.44;78.82;100131.94;5052211;28;20558;-76
2022/11/01 02:47:39;;;;;;;0.50;0.50;;;;;;;13.42;79.09;100133.72;5052413;28;20623;-76
2022/11/01 02:50:09;;;;;;;0.50;0.50;;;;;;;13.39;79.30;100138.97;5051789;28;20200;-76
2022/11/01 02:52:40;;;;;;;0.60;0.60;;;;;;;13.39;79.07;100141.56;5051712;28;20201;-76
2022/11/01 02:55:28;;;;;;;0.50;0.50;;;;;;;13.37;79.16;100135.63;5051766;28;20299;-76
2022/11/01 02:57:56;;;;;;;0.60;0.60;;;;;;;13.36;79.17;100136.50;5051845;28;20280;-76
2022/11/01 03:00:25;;;;;;;0.60;0.60;;;;;;;13.36;79.53;100133.91;5051543;28;20209;-76
2022/11/01 03:02:58;;;;;;;0.50;0.50;;;;;;;13.34;79.96;100130.56;5051791;28;20213;-76
2022/11/01 03:05:35;;;;;;;0.53;0.53;;;;;;;13.27;80.20;100134.19;5051359;28;20197;-76
2022/11/01 03:08:05;;;;;;;0.50;0.50;;;;;;;13.23;80.59;100134.31;5052345;28;20669;-76
2022/11/01 03:10:41;;;;;;;0.53;0.53;;;;;;;13.17;80.79;100135.34;5050318;28;20212;-76
2022/11/01 03:13:21;;;;;;;0.60;0.60;;;;;;;13.16;80.36;100138.81;5051773;28;20204;-76
2022/11/01 03:15:56;;;;;;;0.57;0.57;;;;;;;13.09;80.42;100139.84;5051298;28;20216;-75
2022/11/01 03:18:32;;;;;;;0.50;0.50;;;;;;;13.09;79.93;100142.44;5051685;28;20584;-76
2022/11/01 03:21:14;;;;;;;0.50;0.50;;;;;;;13.06;79.91;100147.63;5051969;28;20262;-76
2022/11/01 03:23:46;;;;;;;0.70;0.70;;;;;;;13.02;79.90;100144.31;5051175;28;20742;-76
2022/11/01 03:26:20;;;;;;;0.50;0.50;;;;;;;13.01;80.11;100136.66;5050508;28;20630;-76
2022/11/01 03:28:51;;;;;;;0.50;0.50;;;;;;;12.95;80.75;100140.25;5050477;28;20231;-75
2022/11/01 03:31:22;;;;;;;0.57;0.57;;;;;;;12.97;80.40;100143.59;5048978;28;20631;-76
2022/11/01 03:33:54;;;;;;;0.50;0.50;;;;;;;12.98;80.80;100147.03;5051076;28;20679;-76
2022/11/01 03:36:24;;;;;;;0.50;0.50;;;;;;;12.98;80.54;100150.44;5051038;28;20197;-76
2022/11/01 03:38:56;;;;;;;0.50;0.50;;;;;;;12.96;80.35;100143.63;5051091;28;20203;-76
2022/11/01 03:41:25;;;;;;;0.40;0.40;;;;;;;12.99;80.75;100153.84;5051094;28;20197;-76
2022/11/01 03:43:52;;;;;;;0.40;0.40;;;;;;;13.01;80.63;100152.09;5050551;28;20646;-75
2022/11/01 03:46:20;;;;;;;0.50;0.50;;;;;;;12.99;80.39;100148.69;5051219;28;20581;-76
2022/11/01 03:48:47;;;;;;;0.50;0.50;;;;;;;12.98;80.50;100149.59;5051003;28;20251;-75
2022/11/01 03:51:15;;;;;;;0.50;0.50;;;;;;;12.97;80.40;100147.91;5048152;28;20207;-76
2022/11/01 03:53:42;;;;;;;0.50;0.50;;;;;;;12.97;80.34;100153.06;5050914;28;20193;-76
2022/11/01 03:56:09;;;;;;;0.50;0.50;;;;;;;12.98;80.56;100165.03;5050259;28;20734;-75
2022/11/01 03:58:44;;;;;;;1.13;1.13;;;;;;;12.98;80.51;100157.31;5050972;28;20227;-76
2022/11/01 04:01:12;;;;;;;0.50;0.50;;;;;;;12.87;81.03;100169.63;5050563;28;20233;-75
2022/11/01 04:03:39;;;;;;;0.57;0.57;;;;;;;12.77;81.84;100160.47;5050082;28;20227;-76
2022/11/01 04:06:07;;;;;;;0.83;0.83;;;;;;;12.76;81.82;100156.22;5050757;28;20661;-75
2022/11/01 04:08:36;;;;;;;0.53;0.53;;;;;;;12.77;81.40;100153.59;5050794;28;20214;-75
2022/11/01 04:11:03;;;;;;;0.60;0.60;;;;;;;12.78;81.78;100157.00;5049856;28;20262;-76
2022/11/01 04:13:30;;;;;;;0.60;0.60;;;;;;;12.76;81.38;100149.34;5050615;28;20608;-76
2022/11/01 04:21:35;;;;;;;0.50;0.50;;;;;;;12.67;81.91;100152.16;5011871;28;20335;-75
2022/11/01 04:24:03;;;;;;;0.60;0.60;;;;;;;12.62;81.83;100159.16;5049940;28;20228;-75
2022/11/01 04:26:30;;;;;;;0.53;0.53;;;;;;;12.57;82.01;100156.69;5049290;28;20196;-76
2022/11/01 04:28:57;;;;;;;0.50;0.50;;;;;;;12.55;81.64;100150.75;5048652;28;20205;-76
2022/11/01 04:31:25;;;;;;;0.70;0.70;;;;;;;12.42;82.10;100136.53;5049910;28;20210;-75
2022/11/01 04:33:52;;;;;;;0.60;0.60;;;;;;;12.38;82.50;100155.47;5050151;28;20735;-75
2022/11/01 04:36:19;;;;;;;0.50;0.50;;;;;;;12.39;82.55;100162.31;5049796;28;20669;-75
2022/11/01 04:38:49;;;;;;;0.80;0.80;;;;;;;12.39;82.60;100161.47;5050122;28;20554;-76
2022/11/01 04:41:18;;;;;;;0.50;0.50;;;;;;;12.28;82.95;100159.16;5046948;28;20193;-75
2022/11/01 04:43:46;;;;;;;0.50;0.50;;;;;;;12.30;83.20;100157.41;5045296;28;20270;-75
2022/11/01 04:46:13;;;;;;;0.57;0.57;;;;;;;12.23;83.56;100168.72;5049437;28;20205;-75
2022/11/01 04:48:40;;;;;;;0.60;0.60;;;;;;;12.17;83.83;100161.19;5049418;28;20192;-75
2022/11/01 04:51:07;;;;;;;0.50;0.50;;;;;;;12.18;83.80;100162.84;5049733;28;20569;-75
2022/11/01 04:53:34;;;;;;;0.50;0.50;;;;;;;12.14;83.64;100166.38;5049337;28;20193;-75
2022/11/01 04:56:02;;;;;;;0.60;0.60;;;;;;;12.06;83.81;100153.72;5049941;28;20201;-75
2022/11/01 04:58:31;;;;;;;0.40;0.40;;;;;;;12.01;84.31;100160.69;5048464;28;20212;-75
2022/11/01 05:00:58;;;;;;;0.50;0.50;;;;;;;11.98;84.51;100159.94;5049897;28;20278;-76
2022/11/01 05:03:24;;;;;;;0.47;0.47;;;;;;;11.94;84.89;100168.59;5048068;28;20221;-75
2022/11/01 05:05:51;;;;;;;0.67;0.67;;;;;;;11.87;85.77;100167.03;5049318;28;20205;-75
2022/11/01 05:08:18;;;;;;;0.50;0.50;;;;;;;11.89;85.62;100170.44;5048743;28;20208;-75
2022/11/01 05:10:45;;;;;;;0.60;0.60;;;;;;;11.86;85.51;100175.59;5048727;28;20205;-75
2022/11/01 05:13:13;;;;;;;0.60;0.60;;;;;;;11.90;85.47;100172.94;5048652;28;20221;-75
2022/11/01 05:15:41;;;;;;;0.60;0.60;;;;;;;11.95;85.07;100176.28;5048586;28;20730;-75
2022/11/01 05:18:08;;;;;;;0.60;0.60;;;;;;;12.00;85.29;100181.28;5049133;28;20565;-75
2022/11/01 05:20:35;;;;;;;0.40;0.40;;;;;;;11.94;85.25;100179.72;5049530;28;20217;-75
2022/11/01 05:23:03;;;;;;;0.50;0.50;;;;;;;12.00;85.26;100183.84;5049224;28;20773;-75
2022/11/01 05:25:30;;;;;;;0.60;0.60;;;;;;;12.02;84.90;100182.94;5048019;28;20201;-75
2022/11/01 05:28:02;;;;;;;0.70;0.70;;;;;;;12.04;84.47;100185.47;5048453;28;20268;-75
2022/11/01 05:30:29;;;;;;;0.70;0.70;;;;;;;11.98;84.52;100175.34;5048539;28;20197;-75
2022/11/01 05:32:59;;;;;;;0.50;0.50;;;;;;;12.04;84.59;100185.47;5049246;28;20201;-75
2022/11/01 05:35:26;;;;;;;0.60;0.60;;;;;;;12.07;84.03;100193.13;5049205;28;20292;-75
2022/11/01 05:37:53;;;;;;;0.50;0.50;;;;;;;12.08;84.33;100194.81;5048974;28;20200;-75
2022/11/01 05:40:20;;;;;;;0.50;0.50;;;;;;;12.08;84.26;100190.50;5048915;28;20558;-75
2022/11/01 05:42:47;;;;;;;0.70;0.70;;;;;;;12.16;84.39;100195.47;5048843;28;20220;-75
2022/11/01 05:45:14;;;;;;;2.03;1.90;;;;;;;12.15;85.20;100193.75;5049185;28;20673;-75
2022/11/01 05:47:42;;;;;;;0.40;0.40;;;;;;;12.21;85.12;100203.94;5048843;28;20207;-75
2022/11/01 05:50:12;;;;;;;0.70;0.70;;;;;;;12.24;84.85;100211.56;5050053;28;20247;-75
2022/11/01 05:52:39;;;;;;;0.40;0.40;;;;;;;12.17;85.85;100202.31;5051920;28;20695;-75
2022/11/01 05:55:07;;;;;;;0.70;0.70;;;;;;;12.22;86.06;100210.72;5050744;28;20255;-75
2022/11/01 05:57:34;;;;;;;0.60;0.60;;;;;;;12.25;85.73;100210.66;5052380;28;20711;-75
2022/11/01 06:00:01;;;;;;;0.53;0.53;;;;;;;12.30;86.30;100216.56;5052378;28;20197;-75
2022/11/01 06:02:31;;;;;;;0.63;0.63;;;;;;;12.33;86.40;100213.06;5052165;28;20204;-75
2022/11/01 06:04:58;;;;;;;0.50;0.50;;;;;;;12.32;86.98;100217.34;5051306;28;20592;-74
2022/11/01 06:07:26;;;;;;;0.50;0.50;;;;;;;12.37;87.06;100219.81;5049471;28;20205;-72
2022/11/01 06:09:53;;;;;;;0.67;0.67;;;;;;;12.42;86.66;100223.97;5051075;28;20676;-73
2022/11/01 06:12:23;;;;;;;0.60;0.60;;;;;;;12.45;86.96;100226.44;5052063;28;20204;-71
2022/11/01 06:14:50;;;;;;;0.50;0.50;;;;;;;12.51;86.64;100217.72;5051697;28;20247;-72
2022/11/01 06:17:17;;;;;;;0.70;0.70;;;;;;;12.58;86.80;100225.25;5050520;28;20203;-74
2022/11/01 06:19:44;;;;;;;0.40;0.40;;;;;;;12.67;86.59;100223.34;5047991;28;20205;-73
2022/11/01 06:22:11;;;;;;;0.67;0.67;;;;;;;12.69;86.84;100222.44;5050643;28;20205;-73
2022/11/01 06:24:39;;;;;;;0.40;0.40;;;;;;;12.75;86.63;100226.56;5051126;28;20271;-73
2022/11/01 06:27:06;;;;;;;0.50;0.50;;;;;;;12.82;86.41;100228.09;5050877;28;20661;-73
2022/11/01 06:29:32;;;;;;;0.40;0.40;;;;;;;12.86;86.73;100219.44;5051749;28;20224;-72
2022/11/01 06:32:04;;;;;;;0.40;0.40;;;;;;;12.95;86.59;100229.47;5048297;28;20208;-73
2022/11/01 06:34:30;;;;;;;0.50;0.50;;;;;;;12.98;86.77;100219.94;5048033;28;20292;-72
2022/11/01 06:36:57;;;;;;;0.50;0.50;;;;;;;13.06;86.37;100219.72;5050794;28;20204;-73
2022/11/01 06:39:24;;;;;;;0.50;0.50;;;;;;;13.06;87.48;100219.72;5049309;28;20208;-71
2022/11/01 06:41:53;;;;;;;0.50;0.50;;;;;;;13.10;88.07;100218.78;5051432;28;20200;-73
2022/11/01 06:44:20;;;;;;;0.60;0.60;;;;;;;13.15;88.35;100222.06;5051735;28;20684;-75
2022/11/01 06:46:46;;;;;;;0.50;0.50;;;;;;;13.21;88.04;100227.06;5050842;28;20668;-74
2022/11/01 06:49:13;;;;;;;0.53;0.53;;;;;;;13.28;87.79;100223.41;5052321;28;20252;-74
2022/11/01 06:51:40;;;;;;;0.50;0.50;;;;;;;13.32;88.06;100222.44;5052386;28;20196;-73
2022/11/01 06:54:07;;;;;;;0.60;0.60;;;;;;;13.38;88.24;100214.53;5052316;28;20205;-73
2022/11/01 06:56:34;;;;;;;0.43;0.43;;;;;;;13.47;88.02;100213.47;5052062;28;20259;-72
2022/11/01 06:59:02;;;;;;;0.50;0.50;;;;;;;13.38;88.28;100199.09;5052415;28;20205;-72
2022/11/01 07:01:29;;;;;;;0.63;0.63;;;;;;;13.60;88.31;100228.50;5051302;28;20197;-72
2022/11/01 07:03:56;;;;;;;0.53;0.53;;;;;;;13.65;88.27;100218.91;5051665;28;20220;-72
2022/11/01 07:06:27;;;;;;;0.50;0.50;;;;;;;13.68;88.47;100231.69;5051046;28;20208;-72
2022/11/01 07:08:54;;;;;;;0.50;0.50;;;;;;;13.71;88.73;100227.34;5047686;28;20205;-75
2022/11/01 07:11:21;;;;;;;0.50;0.50;;;;;;;13.83;88.64;100227.00;5051033;28;22013;-72
2022/11/01 07:13:48;;;;;;;0.50;0.50;;;;;;;13.91;87.75;100230.16;5051721;28;20232;-71
2022/11/01 07:16:16;;;;;;;0.60;0.60;;;;;;;13.92;88.09;100226.72;5050295;28;20224;-71
2022/11/01 07:18:43;;;;;;;0.50;0.50;;;;;;;14.12;87.62;100226.91;5048103;28;20204;-72
2022/11/01 07:21:10;;;;;;;0.60;0.60;;;;;;;14.20;87.30;100232.69;5050375;28;20237;-72
2022/11/01 07:23:36;;;;;;;1.53;0.70;;;;;;;14.34;86.71;100219.38;5049632;28;20216;-71
2022/11/01 07:26:03;;;;;;;0.50;0.50;;;;;;;14.34;86.33;100203.91;5049991;28;20201;-72
2022/11/01 07:28:30;;;;;;;0.60;0.60;;;;;;;14.61;84.84;100218.47;5047820;28;20712;-73
2022/11/01 07:30:57;;;;;;;0.90;0.90;;;;;;;14.86;84.29;100221.06;5049905;28;20210;-72
2022/11/01 07:33:25;;;;;;;0.43;0.43;;;;;;;15.00;83.56;100216.25;5050917;28;20687;-72
2022/11/01 07:35:52;;;;;;;0.50;0.50;;;;;;;15.30;82.02;100225.50;5050490;28;20206;-74
2022/11/01 07:38:19;;;;;;;0.53;0.53;;;;;;;15.48;81.69;100224.84;5050280;28;20245;-74
2022/11/01 07:40:48;;;;;;;0.40;0.40;;;;;;;15.68;81.12;100227.53;5047146;28;21066;-74
2022/11/01 07:43:16;;;;;;;0.60;0.60;;;;;;;15.79;79.93;100209.03;5049548;28;20212;-73
2022/11/01 07:45:43;;;;;;;1.87;1.77;;;;;;;15.17;78.66;100064.13;5048100;28;20196;-73
2022/11/01 07:48:15;;;;;;;0.50;0.50;;;;;;;16.37;76.90;100228.28;5046918;28;20223;-72
2022/11/01 07:50:44;;;;;;;0.50;0.50;;;;;;;16.50;77.10;100213.06;5045584;28;20217;-74
2022/11/01 07:53:13;;;;;;;0.43;0.43;;;;;;;16.78;75.52;100219.66;5049153;28;20209;-73
2022/11/01 07:55:41;;;;;;;0.50;0.50;;;;;;;16.99;74.70;100222.25;5046043;28;20204;-74
2022/11/01 07:58:09;;;;;;;0.57;0.57;;;;;;;17.16;73.56;100210.22;5048141;28;20635;-74
2022/11/01 08:00:36;;;;;;;2.27;2.03;;;;;;;17.31;72.70;100219.06;5048792;28;20200;-74
2022/11/01 08:03:05;;;;;;;0.50;0.50;;;;;;;17.43;72.58;100212.50;5048254;28;20208;-73
2022/11/01 08:05:33;;;;;;;0.50;0.50;;;;;;;17.63;71.55;100215.91;5046481;28;20196;-72
2022/11/01 08:08:02;;;;;;;0.60;0.60;;;;;;;17.73;71.47;100214.56;5047200;28;20204;-73
2022/11/01 08:10:29;;;;;;;0.47;0.47;;;;;;;17.95;70.57;100221.34;5046534;28;20208;-74
2022/11/01 08:13:01;;;;;;;0.60;0.60;;;;;;;18.16;69.68;100215.09;5046638;28;20228;-73
2022/11/01 08:15:28;;;;;;;0.60;0.60;;;;;;;18.42;68.16;100212.09;5045564;28;20254;-72
2022/11/01 08:17:56;;;;;;;0.53;0.53;;;;;;;18.63;66.65;100205.88;5048182;28;20671;-73
2022/11/01 08:20:23;;;;;;;0.40;0.40;;;;;;;18.82;66.98;100201.41;5049534;28;20632;-72
2022/11/01 08:22:49;;;;;;;0.60;0.60;;;;;;;19.05;66.02;100202.00;5049248;28;20207;-72
2022/11/01 08:25:18;;;;;;;0.50;0.50;;;;;;;19.10;64.89;100194.78;5047996;28;20217;-73
2022/11/01 08:27:45;;;;;;;0.40;0.40;;;;;;;19.25;64.31;100200.03;5044851;28;20204;-73
2022/11/01 08:30:13;;;;;;;0.40;0.40;;;;;;;19.42;64.38;100201.75;5046562;28;20287;-73
2022/11/01 08:32:40;;;;;;;0.50;0.50;;;;;;;19.56;63.81;100199.25;5048394;28;20204;-72
2022/11/01 08:35:08;;;;;;;0.33;0.33;;;;;;;19.78;64.08;100191.09;5047774;28;20197;-72
2022/11/01 08:37:35;;;;;;;0.40;0.40;;;;;;;19.91;63.53;100192.94;5048697;28;20201;-72
2022/11/01 08:40:02;;;;;;;0.40;0.40;;;;;;;20.12;62.28;100185.69;5048790;28;20202;-72
2022/11/01 08:42:30;;;;;;;0.50;0.50;;;;;;;20.20;61.59;100186.09;5049283;28;20209;-73
2022/11/01 08:44:57;;;;;;;0.40;0.40;;;;;;;20.30;61.34;100186.44;5049762;28;20674;-72
2022/11/01 08:47:23;;;;;;;0.53;0.53;;;;;;;20.48;62.49;100190.59;5048883;28;20208;-73
2022/11/01 08:49:50;;;;;;;0.43;0.43;;;;;;;20.65;60.59;100190.41;5049039;28;20222;-71
2022/11/01 08:52:17;;;;;;;0.33;0.33;;;;;;;20.76;59.73;100190.63;5048941;28;20221;-71
2022/11/01 08:54:44;;;;;;;0.50;0.50;;;;;;;20.70;59.03;100187.56;5049902;28;20210;-71
2022/11/01 08:57:11;;;;;;;0.53;0.53;;;;;;;20.46;59.83;100187.22;5050726;28;20647;-72
2022/11/01 08:59:39;;;;;;;0.50;0.50;;;;;;;20.52;59.54;100176.44;5050208;28;20206;-72
2022/11/01 09:02:06;;;;;;;0.60;0.60;;;;;;;20.67;59.17;100169.50;5048546;28;20207;-73
2022/11/01 09:04:33;;;;;;;0.30;0.30;;;;;;;20.92;58.37;100186.19;5048687;28;20245;-74
2022/11/01 09:06:59;;;;;;;0.37;0.37;;;;;;;21.09;57.44;100171.28;5048981;28;20210;-73
2022/11/01 09:09:26;;;;;;;0.23;0.23;;;;;;;21.26;56.27;100171.13;5048621;28;20675;-73
2022/11/01 09:11:53;;;;;;;0.50;0.50;;;;;;;21.39;56.28;100182.47;5049878;28;20203;-73
2022/11/01 09:14:22;;;;;;;0.40;0.40;;;;;;;21.51;58.07;100184.31;5048244;28;20243;-73
2022/11/01 09:16:51;;;;;;;0.40;0.40;;;;;;;21.60;56.67;100178.53;5047927;28;20224;-72
2022/11/01 09:19:18;;;;;;;0.30;0.30;;;;;;;21.70;56.71;100174.41;5048547;28;20639;-73
2022/11/01 09:21:46;;;;;;;0.40;0.40;;;;;;;21.66;54.96;100172.91;5049447;28;20205;-72
2022/11/01 09:24:14;;;;;;;0.50;0.50;;;;;;;21.77;55.16;100172.25;5049411;28;20231;-73
2022/11/01 09:26:41;;;;;;;0.30;0.30;;;;;;;21.75;54.44;100148.84;5053734;28;20210;-73
2022/11/01 09:29:09;;;;;;;0.30;0.30;;;;;;;21.97;55.49;100161.38;5050492;28;20211;-72
2022/11/01 09:31:35;;;;;;;0.30;0.30;;;;;;;22.04;53.74;100154.81;5052736;28;20758;-72
2022/11/01 09:34:04;;;;;;;0.33;0.33;;;;;;;22.21;53.26;100158.94;5052484;28;20211;-73
2022/11/01 09:36:31;;;;;;;0.30;0.30;;;;;;;22.29;52.57;100156.66;5050108;28;20211;-73
2022/11/01 09:38:58;;;;;;;0.30;0.30;;;;;;;22.39;52.74;100147.28;5049827;28;20204;-73
2022/11/01 09:41:32;;;;;;;0.30;0.30;;;;;;;22.42;53.58;100142.66;5051932;28;20673;-72
2022/11/01 09:44:04;;;;;;;0.30;0.30;;;;;;;22.57;52.79;100151.25;5052062;28;20227;-72
2022/11/01 09:46:42;;;;;;;0.30;0.30;;;;;;;22.67;52.85;100143.66;5045626;28;20672;-73
2022/11/01 09:49:18;;;;;;;0.30;0.30;;;;;;;22.65;51.04;100133.25;5050503;28;20859;-73
2022/11/01 09:51:45;;;;;;;0.20;0.20;;;;;;;22.66;50.92;100129.75;5051405;28;20203;-72
2022/11/01 09:54:13;;;;;;;0.30;0.30;;;;;;;22.64;51.49;100126.38;5052240;28;20231;-75
2022/11/01 09:56:43;;;;;;;0.30;0.30;;;;;;;22.67;51.37;100130.59;5046080;28;20208;-73
2022/11/01 09:59:22;;;;;;;0.50;0.50;;;;;;;22.64;51.08;100121.16;5050529;28;20208;-73
2022/11/01 10:02:00;;;;;;;0.43;0.43;;;;;;;22.70;50.33;100115.53;5048903;28;20573;-75
2022/11/01 10:04:58;;;;;;;0.40;0.40;;;;;;;22.80;51.73;100111.34;5049333;28;20221;-75
2022/11/01 10:07:32;;;;;;;0.43;0.43;;;;;;;22.85;50.31;100104.00;5049551;28;20680;-75
2022/11/01 10:10:12;;;;;;;0.30;0.30;;;;;;;22.92;50.75;100099.19;5051984;28;20209;-75
2022/11/01 10:12:54;;;;;;;0.33;0.33;;;;;;;22.99;50.30;100108.28;5048690;28;20787;-75
2022/11/01 10:15:39;;;;;;;0.40;0.40;;;;;;;23.00;49.37;100108.16;5050552;28;20826;-78
2022/11/01 10:18:19;;;;;;;0.30;0.30;;;;;;;23.02;50.00;100106.28;5050601;28;20205;-76
2022/11/01 10:20:48;;;;;;;0.30;0.30;;;;;;;22.95;49.93;100097.19;5045701;28;20205;-76
2022/11/01 10:23:16;;;;;;;0.30;0.30;;;;;;;22.92;49.38;100105.25;5050587;28;20208;-76
2022/11/01 10:25:51;;;;;;;0.30;0.30;;;;;;;22.99;49.50;100096.03;5050992;28;20704;-76
2022/11/01 10:28:23;;;;;;;0.30;0.30;;;;;;;23.04;49.78;100092.28;5050021;28;20215;-77
2022/11/01 10:30:55;;;;;;;0.20;0.20;;;;;;;23.09;49.19;100095.41;5051205;28;20447;-65
2022/11/01 10:33:30;;;;;;;0.30;0.30;;;;;;;23.26;50.36;100092.44;5052659;28;20672;-65
2022/11/01 10:36:02;;;;;;;0.30;0.30;;;;;;;23.31;47.98;100095.53;5052073;28;20258;-65
2022/11/01 10:38:36;;;;;;;0.50;0.50;;;;;;;23.39;47.58;100087.97;5055679;28;20263;-65
2022/11/01 10:41:13;;;;;;;0.20;0.20;;;;;;;23.40;48.83;100084.44;5054563;28;20215;-65
2022/11/01 10:43:44;;;;;;;0.30;0.30;;;;;;;23.49;49.18;100073.28;5053995;28;20262;-65
2022/11/01 10:46:16;;;;;;;0.30;0.30;;;;;;;23.56;47.61;100079.75;5051845;28;20219;-65
2022/11/01 10:48:48;;;;;;;0.23;0.23;;;;;;;23.54;47.15;100060.72;5053213;28;20208;-65
2022/11/01 10:51:21;;;;;;;0.30;0.30;;;;;;;23.70;47.06;100066.50;5054483;28;20591;-65
2022/11/01 10:53:54;;;;;;;0.40;0.40;;;;;;;23.77;46.42;100062.50;5052304;28;20200;-65
2022/11/01 10:56:30;;;;;;;0.40;0.40;;;;;;;23.86;46.74;100060.97;5054193;28;20236;-65
2022/11/01 10:59:02;;;;;;;0.30;0.30;;;;;;;23.91;46.79;100059.66;5052900;28;20201;-65
2022/11/01 11:01:35;;;;;;;0.30;0.30;;;;;;;23.99;48.05;100052.09;5052784;28;20668;-65
2022/11/01 11:04:05;;;;;;;0.23;0.23;;;;;;;23.95;47.96;100047.19;5051835;28;20212;-65
2022/11/01 11:06:35;;;;;;;0.40;0.40;;;;;;;23.78;46.44;100037.16;5052633;28;20200;-66
2022/11/01 11:09:04;;;;;;;0.30;0.30;;;;;;;23.83;46.70;100035.84;5052371;28;20268;-65
2022/11/01 11:11:39;;;;;;;0.30;0.30;;;;;;;23.92;47.34;100035.16;5052725;28;20208;-65
2022/11/01 11:14:08;;;;;;;0.20;0.20;;;;;;;23.99;46.82;100035.53;5051194;28;20244;-66
2022/11/01 11:16:40;;;;;;;0.30;0.30;;;;;;;24.04;45.98;100034.22;5052279;28;20291;-66
2022/11/01 11:19:18;;;;;;;0.30;0.30;;;;;;;24.04;46.65;100015.88;5051941;28;20208;-66
2022/11/01 11:21:48;;;;;;;2.87;0.90;;;;;;;24.14;46.03;100015.22;5050030;28;20200;-65
2022/11/01 11:24:18;;;;;;;0.30;0.30;;;;;;;24.17;45.04;100023.69;5052532;28;20243;-65
2022/11/01 11:26:48;;;;;;;0.40;0.40;;;;;;;24.15;45.20;100019.50;5049941;28;20201;-66
2022/11/01 11:29:35;;;;;;;0.30;0.30;;;;;;;24.16;45.07;100015.94;5052798;28;20619;-65
2022/11/01 11:32:04;;;;;;;0.33;0.33;;;;;;;24.16;45.12;100013.31;5052450;28;20672;-65
2022/11/01 11:34:33;;;;;;;0.50;0.50;;;;;;;24.21;44.66;100009.41;5052213;28;20204;-65
2022/11/01 11:37:03;;;;;;;0.40;0.40;;;;;;;24.17;45.25;100004.53;5051896;28;20295;-66
2022/11/01 11:39:34;;;;;;;0.30;0.30;;;;;;;24.21;44.79;100005.94;5052504;28;20197;-65
2022/11/01 11:42:15;;;;;;;0.30;0.30;;;;;;;24.24;44.68;99996.06;5052463;28;20200;-65